createdAt,value
2022-08-10T00:02:00.931Z,99.90
2022-08-10T00:04:29.034Z,99.90
2022-08-10T00:07:03.840Z,99.90
2022-08-10T00:09:50.725Z,99.90
2022-08-10T00:12:53.399Z,99.90
2022-08-10T00:15:52.464Z,99.90
2022-08-10T00:18:34.815Z,99.90
2022-08-10T00:21:05.333Z,99.90
2022-08-10T00:23:40.851Z,99.90
2022-08-10T00:26:09.216Z,99.90
2022-08-10T00:28:45.859Z,99.90
2022-08-10T00:31:14.016Z,99.90
2022-08-10T00:33:48.854Z,99.90
2022-08-10T00:36:16.945Z,99.90
2022-08-10T00:38:51.871Z,99.90
2022-08-10T00:41:19.929Z,99.90
2022-08-10T00:43:55.889Z,99.90
2022-08-10T00:46:23.939Z,99.90
2022-08-10T00:49:00.151Z,99.90
2022-08-10T00:51:32.474Z,99.90
2022-08-10T00:54:23.915Z,99.90
2022-08-10T00:57:17.646Z,99.90
2022-08-10T00:59:57.746Z,99.90
2022-08-10T01:02:28.303Z,99.90
2022-08-10T01:05:03.135Z,99.90
2022-08-10T01:07:59.906Z,99.90
2022-08-10T01:10:43.151Z,99.90
2022-08-10T01:13:30.962Z,99.90
2022-08-10T01:16:06.225Z,99.90
2022-08-10T01:18:54.911Z,99.90
2022-08-10T01:21:59.763Z,99.90
2022-08-10T01:25:20.929Z,99.90
2022-08-10T01:27:56.680Z,99.90
2022-08-10T01:30:35.892Z,99.90
2022-08-10T01:33:09.568Z,99.90
2022-08-10T01:35:48.962Z,99.90
2022-08-10T01:38:20.441Z,99.90
2022-08-10T01:41:02.907Z,99.90
2022-08-10T01:43:32.979Z,99.90
2022-08-10T01:46:11.926Z,99.90
2022-08-10T01:48:42.602Z,99.90
2022-08-10T01:51:21.944Z,99.90
2022-08-10T01:53:53.061Z,99.90
2022-08-10T01:56:30.986Z,99.90
2022-08-10T01:59:02.268Z,99.90
2022-08-10T02:01:45.980Z,99.90
2022-08-10T02:04:15.229Z,99.90
2022-08-10T02:06:52.946Z,99.90
2022-08-10T02:09:25.065Z,99.90
2022-08-10T02:12:08.950Z,99.90
2022-08-10T02:14:41.665Z,99.90
2022-08-10T02:18:00.178Z,99.90
2022-08-10T02:20:12.170Z,99.90
2022-08-10T02:22:48.121Z,99.90
2022-08-10T02:25:41.066Z,99.90
2022-08-10T02:28:29.800Z,99.90
2022-08-10T02:31:02.589Z,99.90
2022-08-10T02:33:56.712Z,99.90
2022-08-10T02:36:28.900Z,99.90
2022-08-10T02:39:08.037Z,99.90
2022-08-10T02:45:14.003Z,99.90
2022-08-10T02:45:19.721Z,99.90
2022-08-10T02:47:52.071Z,99.90
2022-08-10T02:50:33.972Z,99.90
2022-08-10T02:53:06.651Z,99.90
2022-08-10T02:55:48.997Z,99.90
2022-08-10T02:58:29.073Z,99.90
2022-08-10T03:01:05.031Z,99.90
2022-08-10T03:03:38.421Z,99.90
2022-08-10T03:06:19.989Z,99.90
2022-08-10T03:08:48.416Z,99.90
2022-08-10T03:12:35.464Z,99.90
2022-08-10T03:14:21.800Z,99.90
2022-08-10T03:16:59.026Z,99.90
2022-08-10T03:20:34.422Z,99.90
2022-08-10T03:22:26.111Z,99.90
2022-08-10T03:24:55.721Z,99.90
2022-08-10T03:27:31.011Z,99.90
2022-08-10T03:30:23.291Z,99.90
2022-08-10T03:32:55.011Z,99.90
2022-08-10T03:35:23.745Z,99.90
2022-08-10T03:38:00.340Z,99.90
2022-08-10T03:40:45.454Z,99.90
2022-08-10T03:43:25.031Z,99.90
2022-08-10T03:45:56.738Z,99.90
2022-08-10T03:48:48.422Z,99.90
2022-08-10T03:51:18.974Z,99.90
2022-08-10T03:54:04.398Z,99.90
2022-08-10T03:56:36.179Z,99.90
2022-08-10T03:59:12.019Z,99.90
2022-08-10T04:02:47.060Z,99.90
2022-08-10T04:04:36.101Z,99.90
2022-08-10T04:07:05.970Z,99.90
2022-08-10T04:09:55.134Z,99.90
2022-08-10T04:12:31.667Z,99.90
2022-08-10T04:15:06.092Z,99.90
2022-08-10T04:18:03.773Z,99.90
2022-08-10T04:20:36.080Z,99.90
2022-08-10T04:23:08.543Z,99.90
2022-08-10T04:25:47.089Z,99.90
2022-08-10T04:28:15.824Z,99.90
2022-08-10T04:30:52.088Z,99.90
2022-08-10T04:33:23.248Z,99.90
2022-08-10T04:35:59.077Z,99.90
2022-08-10T04:38:28.711Z,99.90
2022-08-10T04:41:05.087Z,99.90
2022-08-10T04:43:33.290Z,99.90
2022-08-10T04:46:14.009Z,99.90
2022-08-10T04:49:01.870Z,99.90
2022-08-10T04:51:37.060Z,99.90
2022-08-10T04:54:08.154Z,99.90
2022-08-10T04:56:46.078Z,99.90
2022-08-10T04:59:14.462Z,99.90
2022-08-10T05:02:28.178Z,99.90
2022-08-10T05:04:44.458Z,99.90
2022-08-10T05:07:21.106Z,99.90
2022-08-10T05:10:02.699Z,99.90
2022-08-10T05:12:48.124Z,99.90
2022-08-10T05:15:18.258Z,99.90
2022-08-10T05:18:08.636Z,99.90
2022-08-10T05:20:38.084Z,99.90
2022-08-10T05:23:14.126Z,99.90
2022-08-10T05:25:42.240Z,99.90
2022-08-10T05:28:18.123Z,99.90
2022-08-10T05:30:46.162Z,99.90
2022-08-10T05:33:21.143Z,99.90
2022-08-10T05:35:57.235Z,99.90
2022-08-10T05:38:34.181Z,99.90
2022-08-10T05:41:03.841Z,99.90
2022-08-10T05:43:40.150Z,99.90
2022-08-10T05:46:19.510Z,99.90
2022-08-10T05:49:01.220Z,99.90
2022-08-10T05:51:30.905Z,99.90
2022-08-10T05:54:07.151Z,99.90
2022-08-10T05:56:53.316Z,99.90
2022-08-10T06:00:11.183Z,99.90
2022-08-10T06:02:30.914Z,99.90
2022-08-10T06:05:13.153Z,99.90
2022-08-10T06:07:45.530Z,99.90
2022-08-10T06:10:35.640Z,99.90
2022-08-10T06:13:34.551Z,99.90
2022-08-10T06:16:28.145Z,99.90
2022-08-10T06:18:57.306Z,99.90
2022-08-10T06:21:32.177Z,99.90
2022-08-10T06:24:02.886Z,99.90
2022-08-10T06:26:37.163Z,99.90
2022-08-10T06:29:08.935Z,99.90
2022-08-10T06:31:49.921Z,99.90
2022-08-10T06:34:23.588Z,99.90
2022-08-10T06:37:00.228Z,99.90
2022-08-10T06:39:36.822Z,99.90
2022-08-10T06:42:21.160Z,99.90
2022-08-10T06:44:55.540Z,99.90
2022-08-10T06:47:37.258Z,99.90
2022-08-10T06:50:11.927Z,99.90
2022-08-10T06:52:47.239Z,99.90
2022-08-10T06:55:16.802Z,99.90
2022-08-10T06:57:59.858Z,99.90
2022-08-10T07:00:37.297Z,99.90
2022-08-10T07:03:10.477Z,99.90
2022-08-10T07:05:51.327Z,99.90
2022-08-10T07:08:22.190Z,99.90
2022-08-10T07:10:59.232Z,99.90
2022-08-10T07:14:14.076Z,99.90
2022-08-10T07:16:35.253Z,99.90
2022-08-10T07:19:12.235Z,99.90
2022-08-10T07:21:42.074Z,99.90
2022-08-10T07:24:18.252Z,99.90
2022-08-10T07:26:51.437Z,99.90
2022-08-10T07:29:53.365Z,99.90
2022-08-10T07:32:17.049Z,99.90
2022-08-10T07:34:55.234Z,99.90
2022-08-10T07:37:26.150Z,99.90
2022-08-10T07:40:04.591Z,99.90
2022-08-10T07:42:34.593Z,99.90
2022-08-10T07:45:10.321Z,99.90
2022-08-10T07:47:52.499Z,99.90
2022-08-10T07:50:35.474Z,99.90
2022-08-10T07:53:08.298Z,99.90
2022-08-10T07:56:03.407Z,99.90
2022-08-10T07:58:35.737Z,99.90
2022-08-10T08:01:10.277Z,99.90
2022-08-10T08:03:39.100Z,99.90
2022-08-10T08:06:17.269Z,99.90
2022-08-10T08:08:46.970Z,99.90
2022-08-10T08:11:29.300Z,99.90
2022-08-10T08:13:58.774Z,99.90
2022-08-10T08:16:34.279Z,99.90
2022-08-10T08:19:26.633Z,99.90
2022-08-10T08:24:07.957Z,99.90
2022-08-10T08:24:52.368Z,99.90
2022-08-10T08:27:28.331Z,99.90
2022-08-10T08:29:56.943Z,99.90
2022-08-10T08:32:34.285Z,99.90
2022-08-10T08:35:05.656Z,99.90
2022-08-10T08:38:28.805Z,99.90
2022-08-10T08:40:36.924Z,99.90
2022-08-10T08:43:31.809Z,99.90
2022-08-10T08:46:18.695Z,99.90
2022-08-10T08:50:07.600Z,99.90
2022-08-10T08:52:18.203Z,99.90
2022-08-10T08:55:52.371Z,99.90
2022-08-10T08:58:05.890Z,99.90
2022-08-10T09:00:59.337Z,99.90
2022-08-10T09:03:48.985Z,99.90
2022-08-10T09:06:39.505Z,99.90
2022-08-10T09:09:43.020Z,99.90
2022-08-10T09:12:40.348Z,99.90
2022-08-10T09:15:39.620Z,99.90
2022-08-10T09:18:18.338Z,99.90
2022-08-10T09:20:52.296Z,99.90
2022-08-10T09:24:05.138Z,99.90
2022-08-10T09:26:23.124Z,99.90
2022-08-10T09:29:12.798Z,99.90
2022-08-10T09:33:06.153Z,99.90
2022-08-10T09:36:20.690Z,99.90
2022-08-10T09:38:02.170Z,99.90
2022-08-10T09:41:01.160Z,99.90
2022-08-10T09:43:51.300Z,99.90
2022-08-10T09:46:44.381Z,99.90
2022-08-10T09:49:25.784Z,99.90
2022-08-10T09:52:22.376Z,99.90
2022-08-10T09:55:02.577Z,99.90
2022-08-10T09:57:49.363Z,99.90
2022-08-10T10:00:27.148Z,99.90
2022-08-10T10:03:17.705Z,99.90
2022-08-10T10:05:56.799Z,99.90
2022-08-10T10:08:42.715Z,99.90
2022-08-10T10:11:35.361Z,99.90
2022-08-10T10:14:23.413Z,99.90
2022-08-10T10:17:03.454Z,99.90
2022-08-10T10:23:07.923Z,99.90
2022-08-10T10:25:51.775Z,99.40
2022-08-10T10:29:06.838Z,98.70
2022-08-10T10:31:34.945Z,98.50
2022-08-10T10:34:15.594Z,99.10
2022-08-10T10:36:52.804Z,97.70
2022-08-10T10:39:27.217Z,97.70
2022-08-10T10:42:42.454Z,97.70
2022-08-10T10:45:17.715Z,97.10
2022-08-10T10:48:07.818Z,96.90
2022-08-10T10:50:45.740Z,97.30
2022-08-10T10:53:27.159Z,97.60
2022-08-10T10:56:15.054Z,96.70
2022-08-10T10:59:33.404Z,96.20
2022-08-10T11:02:02.459Z,96.80
2022-08-10T11:04:44.855Z,96.30
2022-08-10T11:07:31.942Z,96.50
2022-08-10T11:10:32.710Z,94.90
2022-08-10T11:14:26.526Z,94.60
2022-08-10T11:16:31.281Z,94.40
2022-08-10T11:19:15.954Z,94.20
2022-08-10T11:22:05.326Z,93.30
2022-08-10T11:24:50.541Z,93.00
2022-08-10T11:27:26.692Z,92.70
2022-08-10T11:30:11.008Z,93.10
2022-08-10T11:32:48.070Z,91.30
2022-08-10T11:35:37.883Z,91.90
2022-08-10T11:38:32.899Z,92.50
2022-08-10T11:42:09.984Z,92.10
2022-08-10T11:44:12.096Z,91.40
2022-08-10T11:46:55.917Z,90.50
2022-08-10T11:49:32.571Z,91.50
2022-08-10T11:52:13.891Z,91.20
2022-08-10T11:54:45.132Z,91.00
2022-08-10T11:57:23.774Z,91.20
2022-08-10T11:59:58.326Z,90.40
2022-08-10T12:02:40.316Z,90.90
2022-08-10T12:05:12.541Z,90.00
2022-08-10T12:10:02.260Z,89.60
2022-08-10T12:10:42.752Z,89.60
2022-08-10T12:13:23.249Z,89.80
2022-08-10T12:16:03.300Z,88.70
2022-08-10T12:18:52.903Z,88.80
2022-08-10T12:21:46.255Z,89.60
2022-08-10T12:24:30.119Z,88.40
2022-08-10T12:27:04.503Z,87.70
2022-08-10T12:29:45.865Z,87.60
2022-08-10T12:32:25.635Z,86.60
2022-08-10T12:35:08.055Z,86.80
2022-08-10T12:37:51.041Z,89.70
2022-08-10T12:40:35.577Z,87.90
2022-08-10T12:43:12.980Z,87.50
2022-08-10T12:46:15.037Z,87.20
2022-08-10T12:48:51.773Z,87.30
2022-08-10T12:51:33.053Z,86.30
2022-08-10T12:54:08.930Z,84.10
2022-08-10T12:56:45.967Z,84.70
2022-08-10T12:59:15.639Z,84.20
2022-08-10T13:02:09.701Z,84.60
2022-08-10T13:04:42.407Z,84.60
2022-08-10T13:08:25.218Z,83.20
2022-08-10T13:10:10.724Z,83.10
2022-08-10T13:12:48.433Z,83.40
2022-08-10T13:15:45.970Z,83.40
2022-08-10T13:18:19.669Z,84.40
2022-08-10T13:21:20.819Z,84.10
2022-08-10T13:24:08.075Z,85.00
2022-08-10T13:27:22.758Z,84.10
2022-08-10T13:29:39.470Z,84.80
2022-08-10T13:32:11.528Z,83.60
2022-08-10T13:34:50.969Z,84.70
2022-08-10T13:37:24.517Z,83.40
2022-08-10T13:40:03.213Z,82.90
2022-08-10T13:42:35.941Z,82.80
2022-08-10T13:45:17.099Z,83.50
2022-08-10T13:47:50.159Z,83.50
2022-08-10T13:50:35.516Z,82.90
2022-08-10T13:53:14.311Z,81.00
2022-08-10T13:55:56.699Z,81.60
2022-08-10T13:58:30.677Z,82.50
2022-08-10T14:01:08.114Z,83.00
2022-08-10T14:03:39.736Z,81.90
2022-08-10T14:06:19.071Z,82.50
2022-08-10T14:08:50.309Z,81.90
2022-08-10T14:11:29.016Z,81.20
2022-08-10T14:14:00.266Z,82.10
2022-08-10T14:16:36.113Z,82.10
2022-08-10T14:19:13.176Z,80.90
2022-08-10T14:21:55.118Z,81.70
2022-08-10T14:24:26.828Z,82.60
2022-08-10T14:27:12.438Z,81.90
2022-08-10T14:29:44.600Z,82.80
2022-08-10T14:32:22.079Z,82.10
2022-08-10T14:36:18.447Z,82.50
2022-08-10T14:37:56.156Z,82.20
2022-08-10T14:40:28.910Z,82.90
2022-08-10T14:43:13.213Z,83.00
2022-08-10T14:45:48.953Z,81.30
2022-08-10T14:48:31.971Z,81.00
2022-08-10T14:51:03.049Z,82.20
2022-08-10T14:53:42.505Z,82.10
2022-08-10T14:56:14.407Z,82.10
2022-08-10T14:58:58.804Z,83.40
2022-08-10T15:01:59.904Z,82.60
2022-08-10T15:04:33.193Z,83.10
2022-08-10T15:07:12.367Z,84.00
2022-08-10T15:10:01.547Z,83.80
2022-08-10T15:12:34.804Z,82.90
2022-08-10T15:15:16.305Z,83.30
2022-08-10T15:17:52.841Z,84.50
2022-08-10T15:20:31.191Z,83.50
2022-08-10T15:23:30.657Z,83.60
2022-08-10T15:26:11.206Z,83.00
2022-08-10T15:29:21.986Z,83.50
2022-08-10T15:32:03.226Z,83.40
2022-08-10T15:34:49.311Z,83.70
2022-08-10T15:37:36.722Z,83.80
2022-08-10T15:40:25.401Z,82.80
2022-08-10T15:43:20.895Z,83.30
2022-08-10T15:46:00.224Z,83.40
2022-08-10T15:48:40.138Z,82.10
2022-08-10T15:51:18.413Z,83.20
2022-08-10T15:54:02.066Z,83.40
2022-08-10T15:56:36.638Z,83.90
2022-08-10T15:59:16.243Z,83.70
2022-08-10T16:02:03.975Z,83.80
2022-08-10T16:04:56.089Z,84.30
2022-08-10T16:07:46.137Z,83.70
2022-08-10T16:10:28.894Z,84.30
2022-08-10T16:13:01.277Z,83.80
2022-08-10T16:15:38.145Z,84.00
2022-08-10T16:18:10.656Z,84.60
2022-08-10T16:20:54.545Z,84.10
2022-08-10T16:23:34.330Z,84.00
2022-08-10T16:26:14.726Z,83.80
2022-08-10T16:28:48.304Z,84.60
2022-08-10T16:31:27.159Z,84.70
2022-08-10T16:33:58.294Z,84.70
2022-08-10T16:36:45.485Z,84.80
2022-08-10T16:39:57.803Z,84.30
2022-08-10T16:42:18.237Z,85.10
2022-08-10T16:44:54.667Z,85.20
2022-08-10T16:47:32.154Z,85.50
2022-08-10T16:50:05.904Z,85.80
2022-08-10T16:52:43.162Z,85.70
2022-08-10T16:55:23.944Z,86.10
2022-08-10T16:58:13.273Z,86.50
2022-08-10T17:00:42.710Z,86.10
2022-08-10T17:04:04.426Z,86.10
2022-08-10T17:06:16.767Z,86.10
2022-08-10T17:08:56.513Z,86.30
2022-08-10T17:11:30.374Z,86.40
2022-08-10T17:14:07.185Z,85.90
2022-08-10T17:16:38.551Z,85.70
2022-08-10T17:19:21.220Z,86.10
2022-08-10T17:21:59.911Z,85.30
2022-08-10T17:24:48.354Z,84.70
2022-08-10T17:28:13.718Z,85.20
2022-08-10T17:30:33.774Z,84.60
2022-08-10T17:33:07.359Z,84.40
2022-08-10T17:35:44.213Z,84.80
2022-08-10T17:38:17.781Z,84.40
2022-08-10T17:40:59.242Z,84.70
2022-08-10T17:43:46.515Z,85.10
2022-08-10T17:46:26.379Z,85.90
2022-08-10T17:48:56.064Z,86.10
2022-08-10T17:51:32.222Z,86.70
2022-08-10T17:54:02.519Z,87.00
2022-08-10T17:56:41.208Z,87.50
2022-08-10T17:59:17.202Z,87.80
2022-08-10T18:02:01.737Z,88.10
2022-08-10T18:04:41.847Z,87.90
2022-08-10T18:07:18.386Z,87.70
2022-08-10T18:09:52.697Z,87.40
2022-08-10T18:12:38.624Z,88.00
2022-08-10T18:15:12.152Z,88.40
2022-08-10T18:17:55.545Z,88.30
2022-08-10T18:20:38.609Z,88.30
2022-08-10T18:23:15.953Z,88.10
2022-08-10T18:25:54.245Z,88.30
2022-08-10T18:28:25.235Z,88.30
2022-08-10T18:31:02.264Z,88.30
2022-08-10T18:33:35.758Z,88.80
2022-08-10T18:36:13.276Z,89.20
2022-08-10T18:38:47.625Z,89.30
2022-08-10T18:41:26.293Z,89.40
2022-08-10T18:44:12.353Z,89.90
2022-08-10T18:46:53.325Z,89.80
2022-08-10T18:49:30.959Z,90.00
2022-08-10T18:52:11.304Z,90.00
2022-08-10T18:54:46.366Z,90.10
2022-08-10T18:57:34.315Z,90.20
2022-08-10T19:00:11.781Z,90.20
2022-08-10T19:03:02.293Z,90.30
2022-08-10T19:05:48.649Z,90.50
2022-08-10T19:08:55.307Z,90.60
2022-08-10T19:11:35.349Z,90.70
2022-08-10T19:14:16.326Z,90.80
2022-08-10T19:16:56.216Z,90.90
2022-08-10T19:19:43.443Z,91.00
2022-08-10T19:22:24.614Z,91.00
2022-08-10T19:25:09.351Z,91.10
2022-08-10T19:27:51.727Z,91.20
2022-08-10T19:30:37.274Z,91.30
2022-08-10T19:33:21.201Z,91.40
2022-08-10T19:36:09.345Z,91.40
2022-08-10T19:38:50.361Z,91.50
2022-08-10T19:41:32.818Z,91.60
2022-08-10T19:44:19.724Z,91.60
2022-08-10T19:47:01.376Z,91.70
2022-08-10T19:49:41.561Z,91.80
2022-08-10T19:52:26.478Z,91.80
2022-08-10T19:54:59.883Z,91.90
2022-08-10T19:57:42.362Z,92.10
2022-08-10T20:00:21.727Z,92.30
2022-08-10T20:03:17.356Z,92.30
2022-08-10T20:06:13.064Z,92.50
2022-08-10T20:08:58.394Z,92.50
2022-08-10T20:11:44.253Z,92.60
2022-08-10T20:14:26.389Z,92.70
2022-08-10T20:17:02.009Z,92.70
2022-08-10T20:19:52.954Z,93.10
2022-08-10T20:22:35.091Z,92.80
2022-08-10T20:25:18.444Z,92.80
2022-08-10T20:28:01.211Z,92.90
2022-08-10T20:30:41.805Z,93.00
2022-08-10T20:33:12.289Z,93.10
2022-08-10T20:36:00.537Z,93.20
2022-08-10T20:38:35.502Z,93.30
2022-08-10T20:41:19.527Z,93.50
2022-08-10T20:43:57.755Z,93.50
2022-08-10T20:46:37.413Z,93.50
2022-08-10T20:49:22.537Z,93.50
2022-08-10T20:52:02.366Z,93.70
2022-08-10T20:54:36.413Z,93.70
2022-08-10T20:57:54.830Z,93.70
2022-08-10T21:00:31.548Z,93.80
2022-08-10T21:03:33.686Z,94.00
2022-08-10T21:06:35.939Z,94.00
2022-08-10T21:09:28.443Z,94.10
2022-08-10T21:12:18.274Z,94.10
2022-08-10T21:15:03.435Z,94.00
2022-08-10T21:17:58.099Z,94.00
2022-08-10T21:20:54.093Z,94.00
2022-08-10T21:23:46.552Z,94.00
2022-08-10T21:26:29.460Z,94.00
2022-08-10T21:29:21.343Z,93.90
2022-08-10T21:32:07.390Z,93.90
2022-08-10T21:35:00.942Z,93.90
2022-08-10T21:37:43.535Z,94.00
2022-08-10T21:40:35.238Z,94.00
2022-08-10T21:43:44.376Z,94.00
2022-08-10T21:46:54.847Z,94.10
2022-08-10T21:50:12.418Z,94.10
2022-08-10T21:53:07.943Z,94.10
2022-08-10T21:56:14.029Z,94.20
2022-08-10T21:59:16.479Z,94.30
2022-08-10T22:02:11.298Z,94.40
2022-08-10T22:05:04.484Z,94.50
2022-08-10T22:07:51.525Z,94.40
2022-08-10T22:10:49.579Z,94.60
2022-08-10T22:13:37.540Z,94.70
2022-08-10T22:16:36.497Z,94.80
2022-08-10T22:19:24.347Z,94.90
2022-08-10T22:22:37.484Z,95.00
2022-08-10T22:25:39.686Z,95.00
2022-08-10T22:28:31.852Z,95.10
2022-08-10T22:35:05.602Z,95.30
2022-08-10T22:37:59.710Z,95.70
2022-08-10T22:41:00.519Z,95.50
2022-08-10T22:43:50.544Z,95.50
2022-08-10T22:46:45.920Z,95.60
2022-08-10T22:49:22.321Z,95.60
2022-08-10T22:52:01.538Z,95.70
2022-08-10T22:54:53.473Z,95.80
2022-08-10T22:57:46.557Z,95.90
2022-08-10T23:00:17.049Z,95.90
2022-08-10T23:03:00.549Z,96.00
2022-08-10T23:05:34.595Z,96.10
2022-08-10T23:08:29.740Z,96.20
2022-08-10T23:11:03.189Z,96.20
2022-08-10T23:13:39.560Z,96.60
2022-08-10T23:16:32.240Z,96.40
2022-08-10T23:19:17.869Z,96.50
2022-08-10T23:22:13.845Z,96.60
2022-08-10T23:24:52.527Z,96.70
2022-08-10T23:27:37.476Z,96.80
2022-08-10T23:30:17.493Z,96.80
2022-08-10T23:32:49.976Z,97.00
2022-08-10T23:36:29.468Z,97.10
2022-08-10T23:38:22.507Z,97.10
2022-08-10T23:41:04.564Z,97.10
2022-08-10T23:44:00.863Z,97.30
2022-08-10T23:46:32.698Z,97.30
2022-08-10T23:49:03.150Z,97.50
2022-08-10T23:51:56.391Z,97.50
2022-08-10T23:54:27.790Z,97.50
2022-08-10T23:57:05.612Z,97.60
2022-08-10T23:59:34.490Z,97.60
